Time;durP1;ratioP1;P1;durP2;ratioP2;P2;SDS_P1;SDS_P2;PMS_P1;PMS_P2;Temp;Humidity;BMP_temperature;BMP_pressure;BME280_temperature;BME280_humidity;BME280_pressure;Samples;Min_cycle;Max_cycle;Signal;HPM_P1;HPM_P2
2023/12/25 00:02:22;;;;;;;0.77;0.47;;;;;;;;;;5080112;28;20295;-79
2023/12/25 00:04:47;;;;;;;3.42;0.30;;;;;;;;;;5081571;28;20016;-79
2023/12/25 00:07:12;;;;;;;0.87;0.37;;;;;;;;;;5080846;28;20036;-79
2023/12/25 00:09:37;;;;;;;1.00;0.47;;;;;;;;;;5081636;28;20720;-79
2023/12/25 00:12:03;;;;;;;0.30;0.30;;;;;;;;;;5082182;28;20249;-79
2023/12/25 00:14:28;;;;;;;0.20;0.20;;;;;;;;;;5078910;28;20632;-77
2023/12/25 00:16:53;;;;;;;0.30;0.20;;;;;;;;;;5074283;28;20031;-78
2023/12/25 00:19:18;;;;;;;0.38;0.28;;;;;;;;;;5075247;28;20257;-78
2023/12/25 00:21:44;;;;;;;0.23;0.13;;;;;;;;;;5076557;28;20032;-78
2023/12/25 00:24:09;;;;;;;0.30;0.30;;;;;;;;;;5076670;28;20265;-78
2023/12/25 00:26:34;;;;;;;0.20;0.20;;;;;;;;;;5075794;28;20265;-78
2023/12/25 00:28:59;;;;;;;0.40;0.30;;;;;;;;;;5076039;28;20069;-78
2023/12/25 00:31:25;;;;;;;0.20;0.20;;;;;;;;;;5075834;28;20032;-79
2023/12/25 00:33:50;;;;;;;0.32;0.32;;;;;;;;;;5074433;28;20261;-78
2023/12/25 00:36:15;;;;;;;0.43;0.30;;;;;;;;;;5075130;28;20024;-79
2023/12/25 00:38:40;;;;;;;0.43;0.30;;;;;;;;;;5076202;28;20499;-78
2023/12/25 00:41:06;;;;;;;1.02;0.30;;;;;;;;;;5074824;28;20679;-79
2023/12/25 00:43:31;;;;;;;3.15;1.38;;;;;;;;;;5074258;28;20058;-79
2023/12/25 00:45:57;;;;;;;0.73;0.33;;;;;;;;;;5072914;28;20467;-76
2023/12/25 00:48:22;;;;;;;0.30;0.30;;;;;;;;;;5074121;28;20336;-77
2023/12/25 00:50:48;;;;;;;0.52;0.20;;;;;;;;;;5074850;28;20048;-78
2023/12/25 00:53:13;;;;;;;0.27;0.20;;;;;;;;;;5075614;28;20042;-78
2023/12/25 00:55:38;;;;;;;0.90;0.40;;;;;;;;;;5075798;28;20257;-79
2023/12/25 00:58:03;;;;;;;0.55;0.32;;;;;;;;;;5074911;28;20261;-77
2023/12/25 01:00:29;;;;;;;0.20;0.20;;;;;;;;;;5073145;28;20067;-77
2023/12/25 01:02:54;;;;;;;1.50;0.40;;;;;;;;;;5071957;28;20293;-77
2023/12/25 01:05:19;;;;;;;0.53;0.30;;;;;;;;;;5072264;28;20269;-77
2023/12/25 01:07:44;;;;;;;0.95;0.40;;;;;;;;;;5072545;28;20265;-78
2023/12/25 01:10:09;;;;;;;0.52;0.40;;;;;;;;;;5075691;28;20402;-78
2023/12/25 01:12:35;;;;;;;1.80;0.30;;;;;;;;;;5075157;28;20028;-78
2023/12/25 01:15:00;;;;;;;0.40;0.40;;;;;;;;;;5075784;28;20256;-78
2023/12/25 01:17:25;;;;;;;0.77;0.50;;;;;;;;;;5072148;28;20035;-79
2023/12/25 01:19:51;;;;;;;0.45;0.45;;;;;;;;;;5071634;28;20025;-78
2023/12/25 01:22:16;;;;;;;0.68;0.45;;;;;;;;;;5072907;28;20372;-77
2023/12/25 01:24:42;;;;;;;0.70;0.40;;;;;;;;;;5075617;28;20028;-79
2023/12/25 01:27:07;;;;;;;0.40;0.40;;;;;;;;;;5075190;28;20448;-78
2023/12/25 01:29:32;;;;;;;0.47;0.47;;;;;;;;;;5075155;28;20024;-78
2023/12/25 01:31:57;;;;;;;0.60;0.50;;;;;;;;;;5075057;28;20066;-78
2023/12/25 01:34:22;;;;;;;0.20;0.20;;;;;;;;;;5074792;28;20265;-78
2023/12/25 01:36:48;;;;;;;0.20;0.20;;;;;;;;;;5073297;28;20354;-78
2023/12/25 01:39:13;;;;;;;0.47;0.40;;;;;;;;;;5074323;28;20269;-77
2023/12/25 01:41:38;;;;;;;1.07;0.40;;;;;;;;;;5075419;28;20362;-79
2023/12/25 01:44:03;;;;;;;0.97;0.40;;;;;;;;;;5075659;28;20269;-79
2023/12/25 01:46:29;;;;;;;0.30;0.30;;;;;;;;;;5074785;28;20261;-81
2023/12/25 01:48:54;;;;;;;0.32;0.30;;;;;;;;;;5075906;28;20027;-79
2023/12/25 01:51:22;;;;;;;1.23;0.52;;;;;;;;;;5075171;28;20039;-78
2023/12/25 01:53:48;;;;;;;0.25;0.22;;;;;;;;;;5075732;28;20115;-77
2023/12/25 01:56:13;;;;;;;1.10;0.40;;;;;;;;;;5076022;28;20087;-77
2023/12/25 01:58:38;;;;;;;1.30;0.50;;;;;;;;;;5075405;28;20067;-78
2023/12/25 02:01:03;;;;;;;0.40;0.40;;;;;;;;;;5074972;28;20163;-78
2023/12/25 02:03:29;;;;;;;0.63;0.40;;;;;;;;;;5074911;28;20299;-79
2023/12/25 02:05:54;;;;;;;0.80;0.45;;;;;;;;;;5072956;28;20023;-78
2023/12/25 02:08:19;;;;;;;1.00;0.40;;;;;;;;;;5073437;28;20028;-78
2023/12/25 02:10:45;;;;;;;1.27;0.43;;;;;;;;;;5073887;28;20461;-78
2023/12/25 02:13:10;;;;;;;0.50;0.50;;;;;;;;;;5074167;28;20442;-78
2023/12/25 02:15:35;;;;;;;0.60;0.35;;;;;;;;;;5074871;28;20636;-77
2023/12/25 02:18:01;;;;;;;0.20;0.20;;;;;;;;;;5076933;28;20055;-77
2023/12/25 02:20:28;;;;;;;1.38;0.52;;;;;;;;;;5077812;28;20116;-78
2023/12/25 02:22:53;;;;;;;0.43;0.32;;;;;;;;;;5078429;28;20032;-78
2023/12/25 02:25:29;;;;;;;0.43;0.40;;;;;;;;;;5077987;28;20028;-78
2023/12/25 02:27:55;;;;;;;0.55;0.40;;;;;;;;;;5078087;28;20032;-78
2023/12/25 02:30:20;;;;;;;0.50;0.50;;;;;;;;;;5078660;28;20025;-78
2023/12/25 02:32:45;;;;;;;2.00;0.40;;;;;;;;;;5088524;28;20027;-78
2023/12/25 02:35:12;;;;;;;0.70;0.37;;;;;;;;;;5090186;28;20265;-79
2023/12/25 02:37:37;;;;;;;0.40;0.40;;;;;;;;;;5084541;28;20303;-77
2023/12/25 02:40:02;;;;;;;1.10;0.63;;;;;;;;;;5076001;28;20041;-78
2023/12/25 02:42:28;;;;;;;0.73;0.40;;;;;;;;;;5076333;28;20029;-78
2023/12/25 02:44:53;;;;;;;2.30;0.50;;;;;;;;;;5074495;28;20084;-78
2023/12/25 02:47:18;;;;;;;0.98;0.40;;;;;;;;;;5074802;28;20269;-78
2023/12/25 02:49:43;;;;;;;0.60;0.33;;;;;;;;;;5077196;28;20483;-78
2023/12/25 02:52:08;;;;;;;1.80;0.50;;;;;;;;;;5076819;28;20813;-78
2023/12/25 02:54:34;;;;;;;1.13;0.50;;;;;;;;;;5076870;28;21057;-78
2023/12/25 02:56:59;;;;;;;0.40;0.40;;;;;;;;;;5077458;28;20326;-79
2023/12/25 02:59:24;;;;;;;0.30;0.30;;;;;;;;;;5076799;28;20783;-79
2023/12/25 03:01:49;;;;;;;0.20;0.20;;;;;;;;;;5077432;28;20821;-77
2023/12/25 03:04:14;;;;;;;1.63;0.40;;;;;;;;;;5077465;28;20032;-79
2023/12/25 03:06:40;;;;;;;0.87;0.40;;;;;;;;;;5077361;28;20314;-78
2023/12/25 03:09:05;;;;;;;0.40;0.40;;;;;;;;;;5077396;28;20269;-79
2023/12/25 03:11:30;;;;;;;1.40;0.40;;;;;;;;;;5077494;28;20275;-78
2023/12/25 03:13:55;;;;;;;0.30;0.30;;;;;;;;;;5076960;28;20698;-78
2023/12/25 03:16:20;;;;;;;0.83;0.50;;;;;;;;;;5076746;28;20703;-77
2023/12/25 03:18:46;;;;;;;0.30;0.30;;;;;;;;;;5077662;28;20588;-78
2023/12/25 03:21:11;;;;;;;0.30;0.30;;;;;;;;;;5077775;28;20656;-77
2023/12/25 03:23:37;;;;;;;0.67;0.40;;;;;;;;;;5077052;28;20039;-79
2023/12/25 03:26:02;;;;;;;1.65;0.50;;;;;;;;;;5076055;28;20254;-79
2023/12/25 03:28:27;;;;;;;1.25;0.40;;;;;;;;;;5077237;28;20029;-78
2023/12/25 03:30:54;;;;;;;1.00;0.40;;;;;;;;;;5076589;28;20020;-78
2023/12/25 03:33:19;;;;;;;0.40;0.30;;;;;;;;;;5077365;28;20028;-77
2023/12/25 03:35:44;;;;;;;0.35;0.35;;;;;;;;;;5076091;28;20084;-78
2023/12/25 03:38:09;;;;;;;0.30;0.30;;;;;;;;;;5075645;28;20044;-77
2023/12/25 03:40:35;;;;;;;0.30;0.10;;;;;;;;;;5073210;28;20292;-78
2023/12/25 03:43:00;;;;;;;0.85;0.50;;;;;;;;;;5074407;28;20457;-78
2023/12/25 03:45:25;;;;;;;0.33;0.30;;;;;;;;;;5076167;28;20025;-78
2023/12/25 03:47:51;;;;;;;0.27;0.27;;;;;;;;;;5077250;28;20276;-79
2023/12/25 03:50:17;;;;;;;4.63;2.15;;;;;;;;;;5076005;28;20258;-79
2023/12/25 03:52:42;;;;;;;0.97;0.37;;;;;;;;;;5076431;28;20028;-79
2023/12/25 03:55:07;;;;;;;0.23;0.23;;;;;;;;;;5076125;28;20257;-77
2023/12/25 03:57:33;;;;;;;0.30;0.30;;;;;;;;;;5075907;28;20253;-78
2023/12/25 03:59:58;;;;;;;0.88;0.40;;;;;;;;;;5075917;28;20039;-77
2023/12/25 04:02:23;;;;;;;0.75;0.40;;;;;;;;;;5075844;28;20048;-79
2023/12/25 04:04:48;;;;;;;1.10;0.40;;;;;;;;;;5076580;28;20039;-78
2023/12/25 04:07:14;;;;;;;0.27;0.27;;;;;;;;;;5076342;28;20261;-79
2023/12/25 04:09:41;;;;;;;0.30;0.30;;;;;;;;;;5077432;28;20344;-78
2023/12/25 04:12:06;;;;;;;1.20;0.40;;;;;;;;;;5075799;28;20036;-78
2023/12/25 04:14:31;;;;;;;0.45;0.40;;;;;;;;;;5075505;28;20080;-78
2023/12/25 04:16:56;;;;;;;0.93;0.30;;;;;;;;;;5077498;28;20025;-78
2023/12/25 04:19:22;;;;;;;0.63;0.30;;;;;;;;;;5073973;28;20276;-78
2023/12/25 04:21:47;;;;;;;0.20;0.20;;;;;;;;;;5075565;28;20038;-78
2023/12/25 04:24:12;;;;;;;2.93;0.50;;;;;;;;;;5075899;28;20328;-77
2023/12/25 04:26:37;;;;;;;0.63;0.30;;;;;;;;;;5076498;28;20296;-78
2023/12/25 04:29:02;;;;;;;0.73;0.30;;;;;;;;;;5077205;28;20279;-79
2023/12/25 04:31:28;;;;;;;0.20;0.20;;;;;;;;;;5076585;28;20245;-79
2023/12/25 04:33:53;;;;;;;0.20;0.20;;;;;;;;;;5076870;28;20261;-79
2023/12/25 04:36:18;;;;;;;0.40;0.30;;;;;;;;;;5074782;28;20263;-78
2023/12/25 04:38:43;;;;;;;0.20;0.20;;;;;;;;;;5075377;28;20051;-78
2023/12/25 04:41:09;;;;;;;0.87;0.30;;;;;;;;;;5076944;28;20284;-78
2023/12/25 04:43:34;;;;;;;0.55;0.30;;;;;;;;;;5081512;28;20268;-79
2023/12/25 04:46:02;;;;;;;0.28;0.28;;;;;;;;;;5081899;28;20024;-78
2023/12/25 04:48:28;;;;;;;0.73;0.22;;;;;;;;;;5077642;28;20051;-79
2023/12/25 04:50:53;;;;;;;0.30;0.10;;;;;;;;;;5075299;28;20070;-78
2023/12/25 04:53:18;;;;;;;0.20;0.20;;;;;;;;;;5076954;28;20027;-77
2023/12/25 04:55:43;;;;;;;0.10;0.10;;;;;;;;;;5076585;28;20257;-78
2023/12/25 04:58:08;;;;;;;0.30;0.20;;;;;;;;;;5075522;28;20249;-78
2023/12/25 05:00:34;;;;;;;0.50;0.20;;;;;;;;;;5074929;28;20277;-78
2023/12/25 05:02:59;;;;;;;0.27;0.27;;;;;;;;;;5074267;28;20357;-79
2023/12/25 05:05:25;;;;;;;0.20;0.20;;;;;;;;;;5075817;28;20289;-78
2023/12/25 05:07:51;;;;;;;0.20;0.20;;;;;;;;;;5074831;28;20032;-79
2023/12/25 05:10:16;;;;;;;0.20;0.10;;;;;;;;;;5075831;28;20158;-78
2023/12/25 05:12:41;;;;;;;0.23;0.17;;;;;;;;;;5076131;28;20032;-79
2023/12/25 05:15:07;;;;;;;0.70;0.30;;;;;;;;;;5075848;28;20268;-79
2023/12/25 05:17:32;;;;;;;0.10;0.10;;;;;;;;;;5075398;28;20261;-78
2023/12/25 05:19:57;;;;;;;0.20;0.20;;;;;;;;;;5075297;28;20032;-78
2023/12/25 05:22:22;;;;;;;0.10;0.10;;;;;;;;;;5076134;28;20420;-78
2023/12/25 05:24:48;;;;;;;0.30;0.23;;;;;;;;;;5076506;28;20082;-79
2023/12/25 05:27:13;;;;;;;0.23;0.23;;;;;;;;;;5075519;28;20253;-77
2023/12/25 05:29:38;;;;;;;0.50;0.40;;;;;;;;;;5075812;28;20307;-78
2023/12/25 05:32:04;;;;;;;0.63;0.20;;;;;;;;;;5076981;28;20100;-79
2023/12/25 05:34:29;;;;;;;0.35;0.20;;;;;;;;;;5075663;28;20054;-78
2023/12/25 05:36:54;;;;;;;0.22;0.10;;;;;;;;;;5075812;28;20028;-79
2023/12/25 05:39:19;;;;;;;0.10;0.10;;;;;;;;;;5076161;28;20036;-78
2023/12/25 05:41:45;;;;;;;0.10;0.10;;;;;;;;;;5075934;28;20028;-79
2023/12/25 05:44:10;;;;;;;0.30;0.30;;;;;;;;;;5083063;28;20115;-78
2023/12/25 05:46:36;;;;;;;0.15;0.15;;;;;;;;;;5077930;28;20024;-79
2023/12/25 05:49:01;;;;;;;0.10;0.10;;;;;;;;;;5075626;28;20082;-77
2023/12/25 05:51:27;;;;;;;0.20;0.20;;;;;;;;;;5078303;28;20074;-78
2023/12/25 05:53:52;;;;;;;0.10;0.10;;;;;;;;;;5079566;28;20028;-78
2023/12/25 05:56:17;;;;;;;0.15;0.15;;;;;;;;;;5080681;28;20055;-77
2023/12/25 05:58:42;;;;;;;0.67;0.20;;;;;;;;;;5088703;28;20069;-78
2023/12/25 06:01:12;;;;;;;0.20;0.20;;;;;;;;;;5087887;28;20292;-78
2023/12/25 06:03:37;;;;;;;0.10;0.10;;;;;;;;;;5078704;28;20024;-79
2023/12/25 06:06:03;;;;;;;0.43;0.40;;;;;;;;;;5077392;28;20086;-79
2023/12/25 06:08:28;;;;;;;0.20;0.20;;;;;;;;;;5078071;28;20111;-80
2023/12/25 06:10:53;;;;;;;0.20;0.20;;;;;;;;;;5077389;28;20025;-79
2023/12/25 06:13:19;;;;;;;0.43;0.30;;;;;;;;;;5076790;28;20284;-79
2023/12/25 06:15:44;;;;;;;0.67;0.40;;;;;;;;;;5077484;28;20715;-78
2023/12/25 06:18:09;;;;;;;0.82;0.32;;;;;;;;;;5078989;28;20692;-80
2023/12/25 06:20:34;;;;;;;0.68;0.30;;;;;;;;;;5084946;28;20037;-80
2023/12/25 06:22:59;;;;;;;0.37;0.20;;;;;;;;;;5084648;28;20024;-80
2023/12/25 06:25:25;;;;;;;0.10;0.10;;;;;;;;;;5083138;28;20271;-80
2023/12/25 06:27:50;;;;;;;0.20;0.20;;;;;;;;;;5082564;28;20280;-79
2023/12/25 06:30:17;;;;;;;0.60;0.10;;;;;;;;;;5083665;28;20024;-80
2023/12/25 06:32:42;;;;;;;0.20;0.20;;;;;;;;;;5101072;28;20295;-78
2023/12/25 06:35:07;;;;;;;0.20;0.20;;;;;;;;;;5102118;28;20020;-80
2023/12/25 06:37:33;;;;;;;0.20;0.20;;;;;;;;;;5103366;28;20265;-79
2023/12/25 06:39:58;;;;;;;0.43;0.20;;;;;;;;;;5104397;28;20098;-78
2023/12/25 06:42:23;;;;;;;0.20;0.20;;;;;;;;;;5104482;28;20024;-79
2023/12/25 06:44:48;;;;;;;0.20;0.10;;;;;;;;;;5103854;28;20023;-79
2023/12/25 06:47:14;;;;;;;0.22;0.20;;;;;;;;;;5104473;28;20092;-78
2023/12/25 06:49:39;;;;;;;0.25;0.17;;;;;;;;;;5104930;28;20080;-78
2023/12/25 06:52:04;;;;;;;0.10;0.10;;;;;;;;;;5103934;28;20028;-80
2023/12/25 06:54:29;;;;;;;1.80;0.25;;;;;;;;;;5101314;28;20265;-80
2023/12/25 06:56:55;;;;;;;0.23;0.20;;;;;;;;;;5103600;28;20533;-79
2023/12/25 06:59:20;;;;;;;0.20;0.20;;;;;;;;;;5102215;28;20673;-79
2023/12/25 07:01:45;;;;;;;0.23;0.20;;;;;;;;;;5101308;28;20490;-79
2023/12/25 07:04:11;;;;;;;2.13;0.20;;;;;;;;;;5102460;28;20283;-79
2023/12/25 07:06:37;;;;;;;0.28;0.20;;;;;;;;;;5103233;28;20256;-79
2023/12/25 07:09:02;;;;;;;0.55;0.20;;;;;;;;;;5103652;28;20106;-79
2023/12/25 07:11:28;;;;;;;0.73;0.20;;;;;;;;;;5099640;28;20039;-78
2023/12/25 07:13:56;;;;;;;0.10;0.10;;;;;;;;;;5098492;28;20035;-79
2023/12/25 07:16:25;;;;;;;0.43;0.25;;;;;;;;;;5099902;28;20032;-79
2023/12/25 07:18:53;;;;;;;0.10;0.10;;;;;;;;;;5098508;28;20059;-79
2023/12/25 07:21:19;;;;;;;0.98;0.30;;;;;;;;;;5097447;28;20034;-79
2023/12/25 07:23:45;;;;;;;3.10;2.35;;;;;;;;;;5096103;28;20463;-79
2023/12/25 07:26:11;;;;;;;1.13;0.20;;;;;;;;;;5095356;28;20040;-79
2023/12/25 07:28:36;;;;;;;2.15;0.20;;;;;;;;;;5097065;28;20106;-80
2023/12/25 07:31:01;;;;;;;0.20;0.20;;;;;;;;;;5097399;28;20032;-79
2023/12/25 07:33:26;;;;;;;0.10;0.10;;;;;;;;;;5096871;28;20020;-79
2023/12/25 07:35:52;;;;;;;0.20;0.13;;;;;;;;;;5097106;28;20500;-79
2023/12/25 07:38:18;;;;;;;0.20;0.20;;;;;;;;;;5096542;28;20566;-79
2023/12/25 07:40:43;;;;;;;0.10;0.10;;;;;;;;;;5097243;28;20028;-79
2023/12/25 07:43:12;;;;;;;0.17;0.17;;;;;;;;;;5098129;28;20016;-79
2023/12/25 07:45:37;;;;;;;0.32;0.20;;;;;;;;;;5102140;28;20036;-79
2023/12/25 07:48:03;;;;;;;0.43;0.13;;;;;;;;;;5100679;28;20394;-79
2023/12/25 07:50:28;;;;;;;0.10;0.10;;;;;;;;;;5101864;28;20027;-79
2023/12/25 07:52:53;;;;;;;0.10;0.10;;;;;;;;;;5102937;28;20023;-78
2023/12/25 07:55:18;;;;;;;0.20;0.20;;;;;;;;;;5100248;28;20256;-78
2023/12/25 07:57:44;;;;;;;0.13;0.13;;;;;;;;;;5096569;28;20260;-78
2023/12/25 08:00:10;;;;;;;0.57;0.20;;;;;;;;;;5096094;28;20304;-80
2023/12/25 08:02:35;;;;;;;2.10;0.30;;;;;;;;;;5095599;28;20036;-80
2023/12/25 08:05:01;;;;;;;0.20;0.20;;;;;;;;;;5094017;28;20038;-78
2023/12/25 08:07:26;;;;;;;0.20;0.20;;;;;;;;;;5096087;28;20487;-78
2023/12/25 08:09:51;;;;;;;0.98;0.10;;;;;;;;;;5098290;28;20516;-79
2023/12/25 08:12:16;;;;;;;0.17;0.10;;;;;;;;;;5097922;28;20023;-79
2023/12/25 08:14:42;;;;;;;0.28;0.28;;;;;;;;;;5095961;28;20039;-79
2023/12/25 08:17:07;;;;;;;0.20;0.20;;;;;;;;;;5095377;28;20024;-78
2023/12/25 08:19:32;;;;;;;0.43;0.30;;;;;;;;;;5096932;28;20261;-79
2023/12/25 08:21:58;;;;;;;1.27;0.30;;;;;;;;;;5097663;28;20020;-77
2023/12/25 08:24:25;;;;;;;0.35;0.30;;;;;;;;;;5096930;28;20030;-79
2023/12/25 08:26:51;;;;;;;6.90;0.30;;;;;;;;;;5097450;28;20470;-79
2023/12/25 08:29:16;;;;;;;0.30;0.20;;;;;;;;;;5097608;28;20047;-79
2023/12/25 08:31:41;;;;;;;0.45;0.30;;;;;;;;;;5100718;28;20031;-80
2023/12/25 08:34:06;;;;;;;0.20;0.20;;;;;;;;;;5102298;28;20034;-79
2023/12/25 08:36:32;;;;;;;0.82;0.40;;;;;;;;;;5101190;28;20028;-79
2023/12/25 08:38:57;;;;;;;0.20;0.20;;;;;;;;;;5102013;28;20209;-79
2023/12/25 08:41:22;;;;;;;0.20;0.20;;;;;;;;;;5101381;28;20308;-79
2023/12/25 08:43:49;;;;;;;0.65;0.55;;;;;;;;;;5103103;28;20281;-78
2023/12/25 08:46:14;;;;;;;0.30;0.30;;;;;;;;;;5102646;28;20551;-80
2023/12/25 08:48:40;;;;;;;0.82;0.30;;;;;;;;;;5101190;28;20417;-79
2023/12/25 08:51:05;;;;;;;1.52;0.55;;;;;;;;;;5100664;28;20024;-80
2023/12/25 08:53:30;;;;;;;1.65;1.00;;;;;;;;;;5101370;28;20020;-80
2023/12/25 08:55:58;;;;;;;0.30;0.30;;;;;;;;;;5101063;28;20036;-80
2023/12/25 08:58:24;;;;;;;0.25;0.25;;;;;;;;;;5101224;28;20264;-79
2023/12/25 09:00:49;;;;;;;0.60;0.50;;;;;;;;;;5099602;28;20024;-79
2023/12/25 09:03:15;;;;;;;0.63;0.40;;;;;;;;;;5100887;28;20119;-80
2023/12/25 09:05:40;;;;;;;4.33;0.40;;;;;;;;;;5099529;28;20024;-80
2023/12/25 09:08:06;;;;;;;0.35;0.13;;;;;;;;;;5099765;28;20721;-79
2023/12/25 09:10:31;;;;;;;0.30;0.30;;;;;;;;;;5099919;28;20026;-80
2023/12/25 09:12:57;;;;;;;3.70;1.70;;;;;;;;;;5100869;28;20198;-79
2023/12/25 09:15:22;;;;;;;20.58;3.13;;;;;;;;;;5100517;28;20560;-79
2023/12/25 09:17:48;;;;;;;0.20;0.20;;;;;;;;;;5102268;28;20040;-80
2023/12/25 09:20:14;;;;;;;0.40;0.30;;;;;;;;;;5101176;28;20284;-79
2023/12/25 09:22:39;;;;;;;0.90;0.52;;;;;;;;;;5105304;28;20395;-79
2023/12/25 09:25:05;;;;;;;0.38;0.35;;;;;;;;;;5111275;28;20033;-77
2023/12/25 09:27:30;;;;;;;0.30;0.25;;;;;;;;;;5111668;28;20047;-79
2023/12/25 09:29:55;;;;;;;0.40;0.40;;;;;;;;;;5107747;28;20053;-80
2023/12/25 09:32:21;;;;;;;0.35;0.35;;;;;;;;;;5104242;28;20268;-79
2023/12/25 09:34:46;;;;;;;0.57;0.50;;;;;;;;;;5103256;28;20479;-79
2023/12/25 09:37:11;;;;;;;0.68;0.30;;;;;;;;;;5101514;28;20447;-78
2023/12/25 09:39:37;;;;;;;0.67;0.30;;;;;;;;;;5101613;28;20024;-78
2023/12/25 09:42:02;;;;;;;0.50;0.30;;;;;;;;;;5101289;28;20276;-78
2023/12/25 09:44:28;;;;;;;0.60;0.40;;;;;;;;;;5101369;28;20271;-78
2023/12/25 09:46:54;;;;;;;0.20;0.20;;;;;;;;;;5101509;28;20028;-78
2023/12/25 09:49:20;;;;;;;1.73;0.40;;;;;;;;;;5100828;28;20105;-78
2023/12/25 09:51:52;;;;;;;0.45;0.40;;;;;;;;;;5102405;28;20436;-79
2023/12/25 09:54:18;;;;;;;0.30;0.30;;;;;;;;;;5101253;28;20057;-79
2023/12/25 09:56:43;;;;;;;0.60;0.50;;;;;;;;;;5102280;28;20080;-78
2023/12/25 09:59:10;;;;;;;0.35;0.22;;;;;;;;;;5100893;28;20282;-78
2023/12/25 10:01:37;;;;;;;0.65;0.40;;;;;;;;;;5099441;28;20053;-78
2023/12/25 10:04:04;;;;;;;1.35;0.30;;;;;;;;;;5100806;28;20016;-78
2023/12/25 10:06:29;;;;;;;0.70;0.60;;;;;;;;;;5101222;28;20085;-78
2023/12/25 10:08:55;;;;;;;0.30;0.30;;;;;;;;;;5101668;28;20490;-79
2023/12/25 10:11:21;;;;;;;2.30;0.38;;;;;;;;;;5098511;28;20698;-78
2023/12/25 10:13:46;;;;;;;0.30;0.30;;;;;;;;;;5099692;28;20054;-79
2023/12/25 10:16:12;;;;;;;0.35;0.30;;;;;;;;;;5100973;28;20027;-78
2023/12/25 10:18:38;;;;;;;1.30;0.47;;;;;;;;;;5101688;28;20035;-79
2023/12/25 10:21:04;;;;;;;1.60;0.40;;;;;;;;;;5101305;28;20020;-79
2023/12/25 10:23:30;;;;;;;0.30;0.30;;;;;;;;;;5100366;28;20559;-79
2023/12/25 10:25:58;;;;;;;0.63;0.50;;;;;;;;;;5100839;28;20073;-79
2023/12/25 10:28:29;;;;;;;0.38;0.30;;;;;;;;;;5098376;28;20024;-78
2023/12/25 10:31:12;;;;;;;0.68;0.50;;;;;;;;;;5098558;28;20072;-79
2023/12/25 10:33:37;;;;;;;1.75;0.43;;;;;;;;;;5098562;28;20023;-78
2023/12/25 10:36:08;;;;;;;0.98;0.47;;;;;;;;;;5097478;28;20394;-77
2023/12/25 10:38:35;;;;;;;0.95;0.60;;;;;;;;;;5098356;28;20493;-79
2023/12/25 10:41:18;;;;;;;0.47;0.47;;;;;;;;;;5097715;28;20020;-79
2023/12/25 10:43:48;;;;;;;1.73;0.50;;;;;;;;;;5097852;28;20140;-78
2023/12/25 10:46:14;;;;;;;1.55;0.52;;;;;;;;;;5097445;28;20035;-78
2023/12/25 10:48:40;;;;;;;0.43;0.40;;;;;;;;;;5097491;28;20028;-78
2023/12/25 10:51:05;;;;;;;0.50;0.47;;;;;;;;;;5099037;28;20034;-79
2023/12/25 10:53:31;;;;;;;0.50;0.40;;;;;;;;;;5099863;28;20031;-78
2023/12/25 10:55:57;;;;;;;0.43;0.43;;;;;;;;;;5100705;28;20023;-79
2023/12/25 10:58:23;;;;;;;0.70;0.60;;;;;;;;;;5100164;28;20024;-79
2023/12/25 11:00:56;;;;;;;0.70;0.40;;;;;;;;;;5099546;28;20020;-78
2023/12/25 11:03:21;;;;;;;0.80;0.70;;;;;;;;;;5099660;28;20028;-77
2023/12/25 11:05:47;;;;;;;3.25;0.50;;;;;;;;;;5096925;28;20088;-78
2023/12/25 11:08:13;;;;;;;3.30;0.40;;;;;;;;;;5096510;28;20031;-78
2023/12/25 11:10:39;;;;;;;0.50;0.50;;;;;;;;;;5100050;28;20016;-79
2023/12/25 11:13:06;;;;;;;0.60;0.40;;;;;;;;;;5098608;28;20016;-78
2023/12/25 11:15:31;;;;;;;0.85;0.50;;;;;;;;;;5100141;28;20023;-79
2023/12/25 11:17:57;;;;;;;1.05;0.35;;;;;;;;;;5099014;28;20028;-80
2023/12/25 11:20:23;;;;;;;0.38;0.35;;;;;;;;;;5100267;28;20039;-78
2023/12/25 11:22:49;;;;;;;3.03;0.65;;;;;;;;;;5100075;28;20051;-78
2023/12/25 11:25:16;;;;;;;0.45;0.38;;;;;;;;;;5099800;28;20509;-79
2023/12/25 11:27:53;;;;;;;0.30;0.20;;;;;;;;;;5101398;28;20020;-80
2023/12/25 11:30:20;;;;;;;0.35;0.30;;;;;;;;;;5099668;28;20024;-78
2023/12/25 11:32:49;;;;;;;0.30;0.30;;;;;;;;;;5100610;28;20028;-78
2023/12/25 11:35:28;;;;;;;0.73;0.40;;;;;;;;;;5099650;28;20116;-78
2023/12/25 11:38:19;;;;;;;1.05;0.40;;;;;;;;;;5097928;28;20096;-78
2023/12/25 11:40:45;;;;;;;0.70;0.40;;;;;;;;;;5099438;28;20514;-78
2023/12/25 11:43:14;;;;;;;0.60;0.40;;;;;;;;;;5100878;28;20031;-79
2023/12/25 11:45:43;;;;;;;0.98;0.30;;;;;;;;;;5101835;28;20052;-78
2023/12/25 11:48:10;;;;;;;0.30;0.30;;;;;;;;;;5099011;28;20027;-78
2023/12/25 11:50:36;;;;;;;0.85;0.43;;;;;;;;;;5099665;28;20104;-79
2023/12/25 11:53:01;;;;;;;0.20;0.20;;;;;;;;;;5100167;28;20048;-78
2023/12/25 11:55:26;;;;;;;0.35;0.32;;;;;;;;;;5098293;28;20119;-78
2023/12/25 11:57:52;;;;;;;0.45;0.35;;;;;;;;;;5102344;28;20032;-78
2023/12/25 12:00:20;;;;;;;0.20;0.20;;;;;;;;;;5102892;28;20024;-79
2023/12/25 12:02:46;;;;;;;0.52;0.20;;;;;;;;;;5101268;28;20031;-80
2023/12/25 12:05:12;;;;;;;0.63;0.40;;;;;;;;;;5103344;28;20047;-79
2023/12/25 12:07:37;;;;;;;0.55;0.38;;;;;;;;;;5097163;28;20482;-77
2023/12/25 12:10:03;;;;;;;0.20;0.20;;;;;;;;;;5099438;28;20051;-78
2023/12/25 12:12:28;;;;;;;0.32;0.32;;;;;;;;;;5097881;28;20118;-78
2023/12/25 12:14:53;;;;;;;0.30;0.30;;;;;;;;;;5098095;28;20036;-79
2023/12/25 12:17:19;;;;;;;0.20;0.20;;;;;;;;;;5098350;28;20024;-78
2023/12/25 12:19:44;;;;;;;1.05;0.47;;;;;;;;;;5097776;28;20024;-78
2023/12/25 12:22:09;;;;;;;0.20;0.20;;;;;;;;;;5099012;28;20548;-77
2023/12/25 12:24:35;;;;;;;0.20;0.20;;;;;;;;;;5096958;28;20027;-79
2023/12/25 12:27:11;;;;;;;0.22;0.20;;;;;;;;;;5099272;28;20066;-79
2023/12/25 12:29:37;;;;;;;0.50;0.30;;;;;;;;;;5098619;28;20016;-78
2023/12/25 12:32:03;;;;;;;0.30;0.30;;;;;;;;;;5097473;28;20549;-78
2023/12/25 12:34:28;;;;;;;0.28;0.20;;;;;;;;;;5097014;28;20031;-78
2023/12/25 12:37:04;;;;;;;1.27;0.50;;;;;;;;;;5100747;28;20031;-79
2023/12/25 12:39:30;;;;;;;1.98;0.50;;;;;;;;;;5103581;28;20051;-79
2023/12/25 12:41:55;;;;;;;7.55;0.65;;;;;;;;;;5102513;28;20028;-79
2023/12/25 12:44:22;;;;;;;0.63;0.50;;;;;;;;;;5101445;28;20027;-80
2023/12/25 12:46:47;;;;;;;2.90;0.60;;;;;;;;;;5100440;28;20028;-78
2023/12/25 12:49:14;;;;;;;1.00;0.60;;;;;;;;;;5107100;28;20016;-78
2023/12/25 12:51:39;;;;;;;1.45;0.55;;;;;;;;;;5108286;28;20027;-78
2023/12/25 12:54:04;;;;;;;0.50;0.43;;;;;;;;;;5107651;28;20036;-79
2023/12/25 12:56:30;;;;;;;0.85;0.55;;;;;;;;;;5098826;28;20031;-79
2023/12/25 12:58:55;;;;;;;3.30;0.63;;;;;;;;;;5095903;28;20498;-79
2023/12/25 13:01:22;;;;;;;0.68;0.63;;;;;;;;;;5096953;28;20028;-79
2023/12/25 13:03:48;;;;;;;1.98;0.63;;;;;;;;;;5096659;28;20031;-77
2023/12/25 13:06:13;;;;;;;2.80;0.60;;;;;;;;;;5097165;28;20028;-78
2023/12/25 13:08:38;;;;;;;0.80;0.67;;;;;;;;;;5096280;28;20097;-77
2023/12/25 13:11:03;;;;;;;1.40;0.53;;;;;;;;;;5095352;28;20256;-78
2023/12/25 13:13:30;;;;;;;0.85;0.60;;;;;;;;;;5095049;28;20260;-78
2023/12/25 13:15:55;;;;;;;0.80;0.80;;;;;;;;;;5092519;28;20491;-78
2023/12/25 13:18:20;;;;;;;0.60;0.60;;;;;;;;;;5092834;28;20036;-77
2023/12/25 13:20:46;;;;;;;0.90;0.57;;;;;;;;;;5091780;28;20421;-78
2023/12/25 13:23:11;;;;;;;1.57;0.83;;;;;;;;;;5091502;28;20020;-78
2023/12/25 13:25:37;;;;;;;1.95;0.73;;;;;;;;;;5092402;28;20778;-78
2023/12/25 13:28:02;;;;;;;1.25;0.80;;;;;;;;;;5092663;28;20072;-78
2023/12/25 13:30:28;;;;;;;1.55;0.70;;;;;;;;;;5092608;28;20028;-78
2023/12/25 13:32:53;;;;;;;2.10;0.80;;;;;;;;;;5092833;28;20060;-79
2023/12/25 13:35:19;;;;;;;2.90;0.60;;;;;;;;;;5092458;28;20024;-78
2023/12/25 13:37:44;;;;;;;2.83;0.88;;;;;;;;;;5092314;28;20016;-78
2023/12/25 13:40:11;;;;;;;2.10;1.10;;;;;;;;;;5092216;28;20545;-78
2023/12/25 13:42:36;;;;;;;0.93;0.70;;;;;;;;;;5091109;28;20051;-78
2023/12/25 13:45:02;;;;;;;2.08;0.63;;;;;;;;;;5091107;28;20407;-78
2023/12/25 13:47:27;;;;;;;0.60;0.60;;;;;;;;;;5092421;28;20020;-76
2023/12/25 13:49:52;;;;;;;0.80;0.60;;;;;;;;;;5092296;28;20047;-77
2023/12/25 13:52:18;;;;;;;1.53;0.77;;;;;;;;;;5090930;28;20012;-77
2023/12/25 13:54:43;;;;;;;3.40;1.20;;;;;;;;;;5092087;28;20389;-78
2023/12/25 13:57:08;;;;;;;1.92;0.80;;;;;;;;;;5091147;28;20292;-76
2023/12/25 13:59:33;;;;;;;2.03;0.60;;;;;;;;;;5092221;28;20023;-77
2023/12/25 14:01:58;;;;;;;0.97;0.67;;;;;;;;;;5091965;28;20277;-78
2023/12/25 14:04:24;;;;;;;0.85;0.60;;;;;;;;;;5092199;28;20263;-77
2023/12/25 14:06:49;;;;;;;0.70;0.60;;;;;;;;;;5092227;28;20520;-78
2023/12/25 14:09:15;;;;;;;1.35;0.75;;;;;;;;;;5092370;28;20030;-78
2023/12/25 14:11:40;;;;;;;0.68;0.60;;;;;;;;;;5094869;28;20012;-78
2023/12/25 14:14:06;;;;;;;1.88;0.52;;;;;;;;;;5095579;28;20027;-77
2023/12/25 14:16:31;;;;;;;4.17;0.70;;;;;;;;;;5095339;28;20504;-76
2023/12/25 14:18:56;;;;;;;1.90;0.57;;;;;;;;;;5094272;28;20763;-76
2023/12/25 14:21:22;;;;;;;0.93;0.80;;;;;;;;;;5093920;28;20051;-77
2023/12/25 14:23:47;;;;;;;0.60;0.60;;;;;;;;;;5095654;28;20261;-77
2023/12/25 14:26:12;;;;;;;0.90;0.70;;;;;;;;;;5095363;28;20030;-77
2023/12/25 14:28:38;;;;;;;0.85;0.70;;;;;;;;;;5095740;28;20397;-78
2023/12/25 14:31:03;;;;;;;2.10;0.70;;;;;;;;;;5094327;28;20020;-78
2023/12/25 14:33:28;;;;;;;0.75;0.65;;;;;;;;;;5095787;28;20367;-78
2023/12/25 14:35:53;;;;;;;0.93;0.70;;;;;;;;;;5094061;28;20486;-77